Terminal Aerodrome Forecast
Issued by NWS Burlington, VT

Home | Current Version | Previous Version | Text Only | Print | Product List | Glossary On
Versions: 1 2 3 4 5 6 7 8 9 10 11 12 13 14 15 16 17 18 19 20 21 22 23
000
FTUS41 KBTV 281300 AAA
TAFBTV
TAF AMD
KBTV 281344Z 2814/2912 36008KT 2SM -RA BR OVC004
      TEMPO 2814/2816 4SM RA SCT004 OVC020
     FM281600 36008KT 3SM RA BR OVC015
     FM290000 33008G18KT 5SM -SHRA BR OVC025
     FM290300 32007KT 6SM BR OVC030
     FM290700 31005KT P6SM OVC050=

USA.gov is the U.S. government's official web portal to all federal, state and local government web resources and services.